Time;durP1;ratioP1;P1;durP2;ratioP2;P2;SDS_P1;SDS_P2;PMS_P1;PMS_P2;Temp;Humidity;BMP_temperature;BMP_pressure;BME280_temperature;BME280_humidity;BME280_pressure;Samples;Min_cycle;Max_cycle;Signal;HPM_P1;HPM_P2
2022/11/01 00:01:22;;;;;;;;;35.00;32.00;;;;;22.28;66.99;100519.61;102648;1302;125695;-59
2022/11/01 00:03:48;;;;;;;;;;;;;;;22.26;67.26;100513.61;102421;1292;124673;-59
2022/11/01 00:06:15;;;;;;;;;34.50;27.50;;;;;22.27;66.98;100512.09;104268;1309;103455;-60
2022/11/01 00:08:42;;;;;;;;;28.00;26.00;;;;;22.27;66.94;100510.62;102692;1300;124474;-59
2022/11/01 00:11:08;;;;;;;;;36.00;34.00;;;;;22.27;66.95;100508.44;102525;1300;124820;-60
2022/11/01 00:13:35;;;;;;;;;36.00;32.00;;;;;22.26;67.11;100504.20;102570;1300;127411;-59
2022/11/01 00:16:01;;;;;;;;;35.00;30.00;;;;;22.26;66.98;100498.19;102887;1302;124672;-59
2022/11/01 00:18:28;;;;;;;;;29.00;26.50;;;;;22.26;66.92;100493.15;102567;1301;124475;-59
2022/11/01 00:20:55;;;;;;;;;40.00;34.50;;;;;22.24;67.14;100489.67;102652;1300;124634;-59
2022/11/01 00:23:21;;;;;;;;;41.00;34.00;;;;;22.24;67.22;100484.42;102492;1300;124925;-60
2022/11/01 00:25:48;;;;;;;;;30.50;28.50;;;;;22.24;67.35;100478.29;102734;1305;125499;-60
2022/11/01 00:28:15;;;;;;;;;26.50;26.50;;;;;22.24;67.26;100471.81;102867;1297;125137;-60
2022/11/01 00:30:41;;;;;;;;;37.50;33.00;;;;;22.25;67.15;100468.11;102802;1298;124744;-60
2022/11/01 00:33:08;;;;;;;;;37.00;33.00;;;;;22.25;67.19;100468.78;102930;1306;124492;-60
2022/11/01 00:35:35;;;;;;;;;38.50;30.50;;;;;22.24;67.35;100470.73;102724;1306;124717;-60
2022/11/01 00:38:02;;;;;;;;;38.50;33.00;;;;;22.25;67.24;100468.49;102683;1297;124581;-60
2022/11/01 00:40:29;;;;;;;;;;;;;;;22.26;67.14;100470.17;103472;1299;125100;-60
2022/11/01 00:42:55;;;;;;;;;31.00;30.00;;;;;22.25;67.22;100464.04;102887;1298;103531;-60
2022/11/01 00:45:22;;;;;;;;;;;;;;;22.25;67.27;100463.54;103153;1299;124708;-59
2022/11/01 00:47:49;;;;;;;;;36.00;32.00;;;;;22.25;67.30;100461.77;102760;1299;103647;-59
2022/11/01 00:50:15;;;;;;;;;34.00;31.00;;;;;22.25;67.27;100461.73;102814;1298;125135;-59
2022/11/01 00:52:42;;;;;;;;;34.00;30.00;;;;;22.25;67.24;100460.46;102902;1299;126584;-60
2022/11/01 00:55:08;;;;;;;;;39.00;33.00;;;;;22.25;67.25;100458.45;103230;1297;124510;-60
2022/11/01 00:57:35;;;;;;;;;42.00;32.00;;;;;22.24;67.34;100459.67;102880;1306;125012;-59
2022/11/01 01:00:02;;;;;;;;;24.50;24.50;;;;;22.23;67.35;100452.12;102988;1305;124492;-59
2022/11/01 01:02:28;;;;;;;;;27.00;21.50;;;;;22.23;67.34;100451.83;102943;1289;124484;-60
2022/11/01 01:04:55;;;;;;;;;33.00;30.00;;;;;22.22;67.44;100449.18;103002;1297;124516;-59
2022/11/01 01:07:54;;;;;;;;;34.00;31.50;;;;;22.23;67.54;100445.93;101221;1322;46452;-59
2022/11/01 01:10:21;;;;;;;;;35.50;31.00;;;;;22.22;67.45;100444.52;102912;1297;124556;-59
2022/11/01 01:12:47;;;;;;;;;33.00;31.00;;;;;22.22;67.45;100441.84;102883;1299;124552;-59
2022/11/01 01:15:14;;;;;;;;;31.50;29.00;;;;;22.19;67.46;100440.46;104656;1322;124820;-60
2022/11/01 01:17:40;;;;;;;;;32.00;29.00;;;;;22.18;67.49;100438.41;104638;1315;124346;-60
2022/11/01 01:20:07;;;;;;;;;31.00;27.50;;;;;22.18;67.51;100436.61;103022;1307;124375;-59
2022/11/01 01:22:34;;;;;;;;;31.50;28.50;;;;;22.17;67.42;100438.21;103434;1312;177862;-59
2022/11/01 01:25:00;;;;;;;;;33.50;26.50;;;;;22.17;67.38;100435.95;103144;1304;124335;-59
2022/11/01 01:27:27;;;;;;;;;33.00;30.00;;;;;22.16;67.37;100433.31;103009;1312;125047;-59
2022/11/01 01:29:53;;;;;;;;;;;;;;;22.15;67.35;100431.59;103044;1314;124317;-59
2022/11/01 01:32:20;;;;;;;;;29.00;27.00;;;;;22.15;67.26;100429.83;103180;1304;103445;-59
2022/11/01 01:34:47;;;;;;;;;26.50;26.00;;;;;22.14;67.23;100426.30;103162;1319;124456;-59
2022/11/01 01:37:14;;;;;;;;;35.00;30.00;;;;;22.12;67.21;100420.39;103317;1312;125306;-60
2022/11/01 01:39:40;;;;;;;;;37.00;34.00;;;;;22.12;67.06;100418.38;103211;1319;125245;-60
2022/11/01 01:42:07;;;;;;;;;24.00;24.00;;;;;22.11;67.26;100413.42;103116;1311;124502;-59
2022/11/01 01:44:33;;;;;;;;;;;;;;;22.11;67.22;100411.72;103363;1319;125686;-60
2022/11/01 01:47:00;;;;;;;;;34.00;29.00;;;;;22.10;67.14;100416.05;103161;1319;104045;-59
2022/11/01 01:49:26;;;;;;;;;32.00;26.50;;;;;22.08;67.13;100413.70;103906;1306;124372;-60
2022/11/01 01:51:53;;;;;;;;;32.00;29.00;;;;;22.08;67.10;100406.81;103000;1319;124702;-59
2022/11/01 01:54:20;;;;;;;;;29.50;26.00;;;;;22.08;67.11;100405.02;103187;1319;124530;-59
2022/11/01 01:56:46;;;;;;;;;34.67;28.33;;;;;22.06;67.10;100397.97;103336;1304;124601;-59
2022/11/01 01:59:13;;;;;;;;;29.50;28.00;;;;;22.05;66.96;100392.64;103051;1319;124640;-59
2022/11/01 02:01:39;;;;;;;;;32.00;31.00;;;;;22.05;67.04;100388.73;102971;1313;125010;-60
2022/11/01 02:04:06;;;;;;;;;37.00;33.00;;;;;22.05;66.93;100391.59;103140;1318;124832;-59
2022/11/01 02:06:32;;;;;;;;;32.00;30.00;;;;;22.05;66.94;100386.02;103116;1304;125428;-59
2022/11/01 02:08:59;;;;;;;;;;;;;;;22.04;66.82;100386.35;103133;1304;124445;-59
2022/11/01 02:11:25;;;;;;;;;31.00;28.00;;;;;22.02;66.84;100380.33;103033;1296;103772;-60
2022/11/01 02:13:52;;;;;;;;;31.00;28.50;;;;;22.02;66.89;100376.25;103109;1312;125220;-59
2022/11/01 02:16:19;;;;;;;;;28.00;26.00;;;;;22.01;66.79;100372.50;103223;1313;124551;-59
2022/11/01 02:18:45;;;;;;;;;32.00;27.00;;;;;22.01;66.87;100373.25;103230;1319;124586;-59
2022/11/01 02:21:12;;;;;;;;;34.00;30.00;;;;;22.00;66.85;100372.08;103739;1319;124971;-59
2022/11/01 02:23:38;;;;;;;;;32.00;28.00;;;;;22.00;66.99;100373.05;103204;1318;124626;-59
2022/11/01 02:26:05;;;;;;;;;33.33;28.67;;;;;21.99;66.82;100373.56;103554;1307;124833;-59
2022/11/01 02:28:32;;;;;;;;;29.00;26.00;;;;;21.98;66.97;100374.20;103225;1313;124497;-59
2022/11/01 02:30:58;;;;;;;;;30.50;27.00;;;;;21.97;66.80;100376.90;103188;1308;124931;-60
2022/11/01 02:33:25;;;;;;;;;30.00;28.00;;;;;21.97;66.92;100372.73;103485;1311;125107;-59
2022/11/01 02:35:51;;;;;;;;;30.00;27.00;;;;;21.97;66.82;100372.31;103450;1304;124921;-59
2022/11/01 02:38:18;;;;;;;;;31.00;27.00;;;;;21.97;66.85;100369.59;103070;1304;124634;-59
2022/11/01 02:40:44;;;;;;;;;29.00;27.00;;;;;21.97;66.88;100371.81;103012;1299;124566;-59
2022/11/01 02:43:11;;;;;;;;;30.00;28.00;;;;;21.96;66.89;100364.85;103195;1320;124441;-59
2022/11/01 02:45:37;;;;;;;;;;;;;;;21.96;66.80;100363.59;102856;1322;124824;-59
2022/11/01 02:48:04;;;;;;;;;29.00;28.00;;;;;21.96;66.85;100367.41;103101;1304;103720;-60
2022/11/01 02:50:30;;;;;;;;;35.00;31.00;;;;;21.95;66.75;100362.59;103046;1314;125272;-59
2022/11/01 02:52:57;;;;;;;;;29.50;27.00;;;;;21.95;66.79;100364.52;103181;1322;124557;-59
2022/11/01 02:55:34;;;;;;;;;;;;;;;21.96;66.83;100364.56;103812;1320;124267;-59
2022/11/01 02:58:01;;;;;;;;;36.00;31.00;;;;;21.95;66.70;100366.79;104363;1313;103725;-59
2022/11/01 03:00:28;;;;;;;;;;;;;;;21.95;66.89;100372.63;102977;1310;124503;-60
2022/11/01 03:02:55;;;;;;;;;34.00;30.00;;;;;21.95;66.64;100367.20;103135;1307;103496;-60
2022/11/01 03:05:21;;;;;;;;;27.00;27.00;;;;;21.95;66.77;100361.58;102955;1312;125001;-59
2022/11/01 03:07:48;;;;;;;;;;;;;;;21.94;66.85;100353.57;103039;1304;125289;-59
2022/11/01 03:10:14;;;;;;;;;29.50;28.00;;;;;21.93;66.74;100347.98;103133;1305;104043;-59
2022/11/01 03:12:41;;;;;;;;;30.00;28.50;;;;;21.93;66.77;100344.05;103000;1313;124456;-60
2022/11/01 03:15:09;;;;;;;;;30.00;28.00;;;;;21.93;66.85;100340.43;103094;1320;126217;-59
2022/11/01 03:17:46;;;;;;;;;25.00;25.00;;;;;21.92;66.79;100333.48;103003;1296;124666;-60
2022/11/01 03:20:12;;;;;;;;;;;;;;;21.91;66.75;100336.41;103046;1306;124722;-60
2022/11/01 03:22:39;;;;;;;;;29.00;26.00;;;;;21.92;66.91;100342.20;103779;1300;103644;-59
2022/11/01 03:25:36;;;;;;;;;35.50;28.50;;;;;21.91;66.84;100339.02;103336;1322;125515;-60
2022/11/01 03:27:52;;;;;;;;;31.50;30.50;;;;;21.91;66.90;100339.90;103169;1322;124667;-60
2022/11/01 03:30:19;;;;;;;;;33.00;30.00;;;;;21.91;66.76;100343.84;103253;1322;124530;-59
2022/11/01 03:32:46;;;;;;;;;31.00;28.00;;;;;21.91;66.70;100336.41;103087;1314;125385;-59
2022/11/01 03:35:12;;;;;;;;;24.50;23.00;;;;;21.91;66.75;100337.50;102997;1306;125091;-59
2022/11/01 03:37:39;;;;;;;;;37.00;31.50;;;;;21.92;66.84;100337.75;102961;1316;124654;-61
2022/11/01 03:40:05;;;;;;;;;30.00;28.00;;;;;21.92;66.77;100336.86;103107;1306;124666;-60
2022/11/01 03:42:32;;;;;;;;;29.00;28.50;;;;;21.91;66.81;100344.81;103051;1320;124538;-60
2022/11/01 03:44:58;;;;;;;;;29.00;28.00;;;;;21.90;66.86;100342.13;103490;1320;124517;-59
2022/11/01 03:47:25;;;;;;;;;30.00;28.00;;;;;21.90;66.83;100343.59;102870;1307;125118;-59
2022/11/01 03:49:51;;;;;;;;;27.50;26.00;;;;;21.91;66.96;100343.39;102963;1314;124606;-59
2022/11/01 03:52:18;;;;;;;;;35.00;31.00;;;;;21.90;66.76;100342.35;103131;1320;124502;-59
2022/11/01 03:54:44;;;;;;;;;26.00;24.00;;;;;21.90;66.75;100337.64;103076;1314;124665;-60
2022/11/01 03:57:11;;;;;;;;;;;;;;;21.89;66.77;100331.94;103118;1313;125509;-60
2022/11/01 03:59:37;;;;;;;;;31.00;27.00;;;;;21.89;66.82;100335.42;104583;1313;104015;-60
2022/11/01 04:02:04;;;;;;;;;29.00;27.00;;;;;21.88;66.86;100334.14;103805;1311;125969;-59
2022/11/01 04:04:31;;;;;;;;;33.00;30.00;;;;;21.89;66.78;100334.04;103872;1290;124780;-59
2022/11/01 04:06:57;;;;;;;;;;;;;;;21.89;66.65;100330.39;103911;1297;124587;-60
2022/11/01 04:09:24;;;;;;;;;32.00;30.00;;;;;21.88;66.77;100325.39;103780;1288;104293;-60
2022/11/01 04:11:50;;;;;;;;;29.00;28.00;;;;;21.88;66.75;100321.99;103828;1294;125094;-59
2022/11/01 04:22:28;;;;;;;;;28.00;25.50;;;;;21.86;66.67;100329.14;103831;1290;103733;-59
2022/11/01 04:24:55;;;;;;;;;29.00;28.00;;;;;21.86;66.66;100329.31;105434;1302;125867;-59
2022/11/01 04:27:22;;;;;;;;;;;;;;;21.86;66.78;100334.73;103840;1310;125178;-59
2022/11/01 04:29:48;;;;;;;;;31.00;29.00;;;;;21.86;66.64;100335.11;103686;1312;104419;-60
2022/11/01 04:32:15;;;;;;;;;30.00;29.00;;;;;21.85;66.62;100335.41;103852;1297;124923;-62
2022/11/01 04:34:45;;;;;;;;;29.00;27.00;;;;;21.85;66.88;100338.52;103815;1301;125231;-60
2022/11/01 04:37:11;;;;;;;;;31.00;27.00;;;;;21.87;66.67;100342.50;103864;1311;124717;-59
2022/11/01 04:39:38;;;;;;;;;26.00;26.00;;;;;21.87;66.70;100345.31;103703;1297;124954;-59
2022/11/01 04:42:04;;;;;;;;;31.00;29.50;;;;;21.87;66.51;100340.98;103859;1290;124667;-59
2022/11/01 04:44:31;;;;;;;;;;;;;;;21.87;66.62;100338.67;103781;1309;124653;-59
2022/11/01 04:46:57;;;;;;;;;30.00;26.00;;;;;21.87;66.70;100333.22;103990;1310;103831;-59
2022/11/01 04:49:24;;;;;;;;;34.00;31.00;;;;;21.86;66.68;100328.02;103891;1296;124511;-59
2022/11/01 04:51:50;;;;;;;;;;;;;;;21.86;66.59;100327.85;104156;1310;125029;-59
2022/11/01 04:54:17;;;;;;;;;25.00;22.00;;;;;21.86;66.62;100324.03;104170;1304;103666;-59
2022/11/01 04:56:43;;;;;;;;;24.00;24.00;;;;;21.85;66.77;100319.80;103816;1295;125455;-59
2022/11/01 04:59:10;;;;;;;;;27.00;25.00;;;;;21.85;66.62;100318.20;103912;1294;125143;-59
2022/11/01 05:01:36;;;;;;;;;32.50;28.50;;;;;21.86;66.61;100313.36;104416;1294;126133;-59
2022/11/01 05:04:03;;;;;;;;;32.00;28.00;;;;;21.85;66.61;100313.20;103831;1296;125567;-59
2022/11/01 05:06:29;;;;;;;;;34.00;30.00;;;;;21.86;66.57;100306.44;103812;1303;124688;-59
2022/11/01 05:08:56;;;;;;;;;25.00;22.00;;;;;21.85;66.67;100305.94;103858;1296;124734;-59
2022/11/01 05:11:24;;;;;;;;;31.00;28.00;;;;;21.86;66.70;100301.68;103740;1311;124868;-59
2022/11/01 05:13:50;;;;;;;;;31.00;28.00;;;;;21.86;66.64;100297.45;103702;1296;125709;-59
2022/11/01 05:16:17;;;;;;;;;26.50;25.00;;;;;21.85;66.55;100291.79;103969;1298;124866;-59
2022/11/01 05:18:43;;;;;;;;;30.50;28.00;;;;;21.85;66.64;100288.89;103758;1294;124832;-59
2022/11/01 05:21:10;;;;;;;;;;;;;;;21.86;66.62;100289.34;103835;1310;124782;-59
2022/11/01 05:23:36;;;;;;;;;;;;;;;21.85;66.70;100289.89;103686;1298;104141;-60
2022/11/01 05:26:03;;;;;;;;;;;;;;;21.86;66.76;100295.14;103797;1296;105312;-59
2022/11/01 05:28:29;;;;;;;;;;;;;;;21.85;66.65;100299.21;103827;1284;103822;-60
2022/11/01 05:30:56;;;;;;;;;26.50;26.00;;;;;21.85;66.61;100302.75;103874;1286;104180;-59
2022/11/01 05:33:22;;;;;;;;;32.50;28.50;;;;;21.84;66.79;100299.98;103839;1290;124916;-59
2022/11/01 05:35:49;;;;;;;;;34.00;30.00;;;;;21.84;66.72;100304.80;103705;1296;124998;-59
2022/11/01 05:38:16;;;;;;;;;34.50;30.00;;;;;21.84;66.76;100312.83;104163;1294;126074;-59
2022/11/01 05:40:42;;;;;;;;;30.50;27.50;;;;;21.84;66.85;100320.73;103791;1310;124999;-59
2022/11/01 05:43:09;;;;;;;;;;;;;;;21.83;66.74;100330.19;103822;1297;124904;-59
2022/11/01 05:45:36;;;;;;;;;29.00;27.00;;;;;21.82;66.85;100320.58;103731;1311;104864;-59
2022/11/01 05:48:02;;;;;;;;;;;;;;;21.84;67.00;100317.58;103858;1294;124817;-59
2022/11/01 05:50:29;;;;;;;;;;;;;;;21.85;66.85;100316.98;103786;1310;104566;-59
2022/11/01 05:52:55;;;;;;;;;66.50;54.50;;;;;21.84;66.81;100318.29;104016;1310;103852;-59
2022/11/01 05:55:22;;;;;;;;;89.00;83.00;;;;;21.85;67.09;100314.55;103767;1310;124789;-59
2022/11/01 05:57:48;;;;;;;;;;;;;;;21.86;67.01;100314.36;103870;1310;125617;-59
2022/11/01 06:00:15;;;;;;;;;;;;;;;21.86;67.11;100316.17;103912;1310;103869;-58
2022/11/01 06:02:42;;;;;;;;;76.50;69.00;;;;;21.87;67.32;100319.35;103805;1297;103833;-59
2022/11/01 06:05:08;;;;;;;;;83.00;72.00;;;;;21.88;67.23;100327.58;103810;1310;125401;-61
2022/11/01 06:07:35;;;;;;;;;79.00;74.50;;;;;21.88;67.23;100336.98;103784;1296;125108;-60
2022/11/01 06:10:02;;;;;;;;;78.00;69.00;;;;;21.88;67.02;100332.70;104418;1296;125039;-60
2022/11/01 06:12:28;;;;;;;;;82.00;78.00;;;;;21.87;67.24;100325.41;104225;1303;124814;-60
2022/11/01 06:14:55;;;;;;;;;78.00;75.00;;;;;21.86;67.15;100328.06;103804;1310;124843;-59
2022/11/01 06:17:21;;;;;;;;;82.00;75.00;;;;;21.87;67.24;100338.80;104640;1308;125626;-59
2022/11/01 06:19:48;;;;;;;;;78.00;72.00;;;;;21.87;67.23;100338.42;105489;1310;125691;-60
2022/11/01 06:22:14;;;;;;;;;;;;;;;21.87;67.14;100337.28;105887;1302;125176;-60
2022/11/01 06:24:41;;;;;;;;;79.00;76.00;;;;;21.88;67.16;100343.08;105835;1287;103889;-60
2022/11/01 06:27:07;;;;;;;;;77.00;70.00;;;;;21.88;67.13;100360.38;105877;1302;125674;-60
2022/11/01 06:29:34;;;;;;;;;76.00;70.00;;;;;21.88;67.24;100372.89;105811;1279;125891;-60
2022/11/01 06:32:00;;;;;;;;;81.00;74.00;;;;;21.88;67.16;100367.94;105864;1302;125620;-60
2022/11/01 06:34:27;;;;;;;;;78.00;69.00;;;;;21.87;67.26;100368.28;105845;1302;125714;-59
2022/11/01 06:36:53;;;;;;;;;66.00;52.00;;;;;21.86;66.62;100367.75;105936;1287;125243;-60
2022/11/01 06:39:20;;;;;;;;;72.00;58.00;;;;;21.67;65.12;100367.21;105849;1302;125472;-59
2022/11/01 06:41:46;;;;;;;;;;;;;;;21.72;65.94;100377.63;105237;1302;125350;-59
2022/11/01 06:44:13;;;;;;;;;70.00;59.00;;;;;21.77;66.55;100381.25;103867;1310;104172;-59
2022/11/01 06:46:39;;;;;;;;;73.00;62.00;;;;;21.81;66.66;100375.59;104932;1301;125391;-59
2022/11/01 06:49:06;;;;;;;;;72.00;62.00;;;;;21.83;66.73;100372.63;103760;1287;124929;-59
2022/11/01 06:51:33;;;;;;;;;71.00;57.00;;;;;21.85;66.60;100364.27;105155;1296;125271;-59
2022/11/01 06:53:59;;;;;;;;;;;;;;;21.86;66.62;100374.25;105901;1287;124972;-59
2022/11/01 06:56:26;;;;;;;;;72.00;60.00;;;;;21.88;66.68;100374.20;105845;1302;103868;-59
2022/11/01 06:58:52;;;;;;;;;72.00;61.00;;;;;21.88;66.72;100370.16;105924;1287;124818;-59
2022/11/01 07:01:20;;;;;;;;;72.00;62.00;;;;;21.88;66.70;100373.06;104854;1302;124935;-59
2022/11/01 07:03:47;;;;;;;;;;;;;;;21.87;66.70;100382.48;105670;1302;126674;-59
2022/11/01 07:06:13;;;;;;;;;;;;;;;21.89;66.84;100385.70;105983;1294;103880;-59
2022/11/01 07:08:40;;;;;;;;;68.50;57.00;;;;;21.90;66.81;100384.64;105837;1296;104382;-59
2022/11/01 07:11:06;;;;;;;;;;;;;;;21.90;66.66;100399.50;105906;1279;125510;-59
2022/11/01 07:13:35;;;;;;;;;;;;;;;21.90;66.87;100398.08;105935;1302;104266;-59
2022/11/01 07:16:03;;;;;;;;;67.00;52.00;;;;;21.89;66.81;100398.75;105885;1287;104573;-59
2022/11/01 07:18:29;;;;;;;;;68.00;53.00;;;;;21.89;66.62;100401.73;105758;1297;125380;-60
2022/11/01 07:20:56;;;;;;;;;66.00;53.00;;;;;21.91;66.74;100396.39;105931;1287;124795;-59
2022/11/01 07:23:22;;;;;;;;;68.00;53.00;;;;;21.89;66.68;100398.33;105693;1295;125568;-59
2022/11/01 07:25:49;;;;;;;;;70.00;57.00;;;;;21.90;66.70;100397.73;105828;1280;125665;-59
2022/11/01 07:28:15;;;;;;;;;67.00;53.00;;;;;21.91;66.81;100393.11;105923;1302;124982;-59
2022/11/01 07:30:41;;;;;;;;;;;;;;;21.91;66.75;100389.20;105890;1301;124795;-59
2022/11/01 07:33:08;;;;;;;;;63.00;48.00;;;;;21.90;66.75;100390.94;105779;1302;107199;-60
2022/11/01 07:35:34;;;;;;;;;;;;;;;21.35;59.53;100382.20;105318;1302;125761;-60
2022/11/01 07:38:01;;;;;;;;;;;;;;;20.26;58.67;100374.77;104092;1287;108686;-59
2022/11/01 07:40:27;;;;;;;;;65.00;50.50;;;;;19.73;59.21;100372.38;105851;1287;104378;-59
2022/11/01 07:42:54;;;;;;;;;62.00;48.00;;;;;19.54;59.29;100375.31;104073;1305;124824;-60
2022/11/01 07:45:21;;;;;;;;;93.00;81.00;;;;;19.43;59.41;100376.40;103806;1304;126639;-59
2022/11/01 07:47:47;;;;;;;;;80.33;67.00;;;;;19.25;59.59;100374.16;103611;1290;125642;-60
2022/11/01 07:50:14;;;;;;;;;66.00;52.00;;;;;19.02;59.76;100376.86;105221;1295;125014;-60
2022/11/01 07:52:41;;;;;;;;;63.00;51.00;;;;;18.83;60.16;100374.47;105885;1287;124857;-60
2022/11/01 07:55:07;;;;;;;;;65.00;51.00;;;;;18.70;60.43;100374.66;105990;1289;124846;-60
2022/11/01 07:57:34;;;;;;;;;;;;;;;18.66;60.54;100380.16;105861;1297;126112;-60
2022/11/01 08:00:00;;;;;;;;;;;;;;;18.62;60.75;100381.71;105825;1302;103873;-60
2022/11/01 08:02:27;;;;;;;;;64.00;50.00;;;;;18.63;61.61;100382.09;105893;1280;103895;-59
2022/11/01 08:04:53;;;;;;;;;65.00;51.00;;;;;19.14;61.94;100381.23;105448;1302;125351;-59
2022/11/01 08:07:20;;;;;;;;;;;;;;;19.58;61.57;100384.96;103852;1290;124827;-59
2022/11/01 08:09:46;;;;;;;;;54.00;44.00;;;;;19.83;61.29;100379.92;103836;1290;104757;-59
2022/11/01 08:12:13;;;;;;;;;63.00;47.00;;;;;19.98;61.03;100391.11;105962;1287;126409;-60
2022/11/01 08:14:39;;;;;;;;;64.00;48.00;;;;;20.07;61.10;100391.55;104212;1288;124905;-60
2022/11/01 08:17:06;;;;;;;;;65.00;48.00;;;;;20.11;60.74;100387.79;103873;1311;125576;-59
2022/11/01 08:19:33;;;;;;;;;;;;;;;20.07;60.55;100379.83;103843;1287;129326;-59
2022/11/01 08:22:00;;;;;;;;;55.00;46.00;;;;;20.08;60.65;100377.98;103663;1310;104295;-60
2022/11/01 08:24:26;;;;;;;;;65.00;49.00;;;;;20.11;60.58;100377.65;103814;1296;124844;-60
2022/11/01 08:26:53;;;;;;;;;60.00;46.00;;;;;20.08;60.40;100379.45;103910;1310;125291;-60
2022/11/01 08:29:19;;;;;;;;;;;;;;;20.06;60.25;100381.21;103719;1295;125012;-60
2022/11/01 08:31:46;;;;;;;;;58.00;45.00;;;;;20.06;60.14;100373.85;105630;1300;104171;-60
2022/11/01 08:34:12;;;;;;;;;;;;;;;20.07;60.16;100370.88;105830;1302;125808;-60
2022/11/01 08:36:39;;;;;;;;;;;;;;;20.08;60.07;100379.20;104451;1302;102906;-59
2022/11/01 08:39:05;;;;;;;;;54.00;43.00;;;;;20.12;60.20;100380.55;103880;1310;103868;-64
2022/11/01 08:41:32;;;;;;;;;;;;;;;20.16;59.93;100381.59;103733;1304;126084;-59
2022/11/01 08:43:59;;;;;;;;;;;;;;;20.19;59.89;100378.28;103856;1296;104203;-59
2022/11/01 08:46:25;;;;;;;;;58.00;44.00;;;;;20.22;59.88;100378.98;103771;1310;103929;-59
2022/11/01 08:48:55;;;;;;;;;51.00;43.00;;;;;20.23;59.99;100381.25;103871;1294;125445;-59
2022/11/01 08:51:24;;;;;;;;;48.00;40.00;;;;;20.28;59.80;100383.30;103862;1290;124927;-59
2022/11/01 08:53:51;;;;;;;;;54.00;43.00;;;;;20.29;59.65;100388.31;103601;1294;125082;-59
2022/11/01 08:56:19;;;;;;;;;54.00;42.00;;;;;20.28;59.71;100385.55;103952;1309;124990;-59
2022/11/01 08:58:46;;;;;;;;;52.50;43.00;;;;;20.28;59.69;100386.73;103743;1296;124821;-59
2022/11/01 09:01:12;;;;;;;;;52.00;40.00;;;;;20.29;59.63;100384.59;103822;1310;124942;-59
2022/11/01 09:03:39;;;;;;;;;;;;;;;20.31;59.75;100381.33;103654;1294;125303;-59
2022/11/01 09:06:05;;;;;;;;;;;;;;;20.34;59.51;100381.44;103824;1310;103973;-59
2022/11/01 09:08:32;;;;;;;;;;;;;;;20.33;59.24;100384.75;103763;1310;104058;-59
2022/11/01 09:10:58;;;;;;;;;47.00;39.00;;;;;20.29;59.13;100387.19;103708;1297;104521;-59
2022/11/01 09:13:25;;;;;;;;;42.50;33.50;;;;;20.32;59.34;100388.82;103781;1310;124900;-59
2022/11/01 09:15:51;;;;;;;;;43.50;37.50;;;;;20.39;59.51;100395.57;105334;1310;125572;-60
2022/11/01 09:18:18;;;;;;;;;50.00;39.00;;;;;20.45;59.36;100390.13;105994;1297;125624;-59
2022/11/01 09:20:44;;;;;;;;;41.00;35.00;;;;;20.43;59.12;100391.02;105855;1295;125076;-59
2022/11/01 09:23:11;;;;;;;;;43.00;37.00;;;;;20.46;59.42;100398.75;105772;1287;125451;-59
2022/11/01 09:25:37;;;;;;;;;45.50;36.00;;;;;20.50;59.21;100402.61;105818;1302;125466;-59
2022/11/01 09:28:04;;;;;;;;;46.00;36.00;;;;;20.51;59.05;100403.40;105920;1302;125954;-59
2022/11/01 09:30:30;;;;;;;;;50.00;39.00;;;;;20.53;59.21;100401.90;105904;1302;124839;-60
2022/11/01 09:32:57;;;;;;;;;;;;;;;20.53;59.25;100402.30;104540;1305;124987;-59
2022/11/01 09:35:23;;;;;;;;;;;;;;;20.56;59.23;100401.55;105803;1302;104695;-59
2022/11/01 09:37:50;;;;;;;;;;;;;;;20.60;59.38;100403.46;105864;1302;104096;-60
2022/11/01 09:40:16;;;;;;;;;39.00;32.00;;;;;20.62;59.17;100403.38;106018;1280;104455;-59
2022/11/01 09:42:43;;;;;;;;;43.00;36.50;;;;;20.61;59.07;100405.19;105867;1297;125365;-60
2022/11/01 09:45:09;;;;;;;;;40.00;33.00;;;;;20.65;59.27;100416.16;104182;1295;124908;-59
2022/11/01 09:47:36;;;;;;;;;46.00;36.00;;;;;20.71;59.39;100420.00;103657;1294;125703;-59
2022/11/01 09:50:02;;;;;;;;;37.00;33.00;;;;;20.75;59.38;100414.08;103850;1310;125078;-59
2022/11/01 09:52:29;;;;;;;;;38.00;33.00;;;;;20.76;59.18;100413.95;105570;1311;126142;-59
2022/11/01 09:54:55;;;;;;;;;38.00;34.00;;;;;20.77;59.30;100403.42;105945;1287;124826;-59
2022/11/01 09:57:22;;;;;;;;;36.00;32.00;;;;;20.77;59.25;100402.76;105920;1286;125326;-59
2022/11/01 09:59:48;;;;;;;;;33.50;31.50;;;;;20.78;59.25;100403.55;105660;1280;125677;-60
2022/11/01 10:02:16;;;;;;;;;32.00;30.00;;;;;20.80;59.26;100408.08;104185;1301;125618;-59
2022/11/01 10:04:43;;;;;;;;;40.00;34.00;;;;;20.80;59.33;100418.31;103779;1288;125484;-59
2022/11/01 10:07:10;;;;;;;;;32.00;30.00;;;;;20.79;59.30;100428.04;106012;1302;125526;-59
2022/11/01 10:09:36;;;;;;;;;43.00;35.50;;;;;20.78;59.44;100432.81;105820;1294;125379;-59
2022/11/01 10:12:03;;;;;;;;;38.50;33.00;;;;;20.78;59.50;100433.20;105926;1296;125909;-59
2022/11/01 10:14:29;;;;;;;;;35.00;32.00;;;;;20.78;59.49;100432.48;105806;1302;124975;-60
2022/11/01 10:16:56;;;;;;;;;;;;;;;20.77;59.56;100435.70;106016;1302;124924;-59
2022/11/01 10:19:22;;;;;;;;;;;;;;;20.78;59.68;100437.21;105907;1298;103815;-59
2022/11/01 10:21:49;;;;;;;;;27.00;26.00;;;;;20.80;59.73;100435.84;105671;1302;105248;-60
2022/11/01 10:24:15;;;;;;;;;22.00;19.00;;;;;20.83;59.84;100425.95;105980;1281;124891;-60
2022/11/01 10:26:44;;;;;;;;;26.00;24.00;;;;;20.88;59.69;100425.48;105923;1280;125212;-60
2022/11/01 10:29:11;;;;;;;;;29.00;24.00;;;;;20.90;59.64;100428.08;105760;1286;125405;-59
2022/11/01 10:31:38;;;;;;;;;27.00;21.00;;;;;20.90;59.66;100423.88;105918;1302;125110;-60
2022/11/01 10:34:04;;;;;;;;;19.00;16.00;;;;;20.91;59.76;100419.10;105848;1280;125577;-59
2022/11/01 10:36:31;;;;;;;;;22.00;19.50;;;;;20.92;59.82;100420.94;105894;1302;125247;-60
2022/11/01 10:38:57;;;;;;;;;22.50;20.50;;;;;20.91;59.65;100420.06;106050;1297;124982;-60
2022/11/01 10:41:24;;;;;;;;;18.00;15.00;;;;;20.91;59.64;100422.41;105862;1281;125949;-59
2022/11/01 10:43:50;;;;;;;;;19.00;18.00;;;;;20.94;59.65;100426.42;105860;1280;125200;-60
2022/11/01 10:46:17;;;;;;;;;21.00;21.00;;;;;20.95;59.77;100428.77;105867;1295;125510;-60
2022/11/01 10:48:44;;;;;;;;;19.50;17.50;;;;;20.94;59.79;100429.65;105875;1296;124932;-59
2022/11/01 10:51:10;;;;;;;;;17.00;16.00;;;;;20.93;59.70;100433.77;105914;1302;125478;-59
2022/11/01 10:53:37;;;;;;;;;16.00;16.00;;;;;20.93;59.58;100437.96;105791;1287;125626;-60
2022/11/01 10:56:07;;;;;;;;;14.50;14.50;;;;;20.89;59.19;100436.16;105920;1288;125636;-59
2022/11/01 10:58:34;;;;;;;;;15.50;15.50;;;;;20.89;59.20;100436.17;105768;1287;125248;-60
2022/11/01 11:01:00;;;;;;;;;;;;;;;20.91;59.17;100437.59;105202;1302;125450;-59
2022/11/01 11:03:27;;;;;;;;;15.50;14.00;;;;;20.91;58.85;100434.15;105631;1295;103973;-59
2022/11/01 11:05:53;;;;;;;;;16.00;15.00;;;;;20.91;59.00;100436.30;105663;1296;125441;-60
2022/11/01 11:08:20;;;;;;;;;14.00;13.00;;;;;20.93;59.03;100437.30;105853;1300;125244;-59
2022/11/01 11:10:46;;;;;;;;;1.00;0.50;;;;;20.94;58.96;100438.42;105728;1302;124795;-59
2022/11/01 11:13:13;;;;;;;;;13.00;12.50;;;;;20.95;58.98;100438.79;105730;1291;125052;-59
2022/11/01 11:15:39;;;;;;;;;;;;;;;20.96;59.09;100436.11;105617;1303;125124;-60